sensor_id;sensor_type;location;lat;lon;timestamp;temperature;humidity
43087;DHT22;28708;52.224;6.924;2023-02-22T00:01:16;8.70;99.90
43087;DHT22;28708;52.224;6.924;2023-02-22T00:04:00;8.70;99.90
43087;DHT22;28708;52.224;6.924;2023-02-22T00:06:25;8.70;99.90
43087;DHT22;28708;52.224;6.924;2023-02-22T00:08:51;8.70;99.90
43087;DHT22;28708;52.224;6.924;2023-02-22T00:11:18;8.80;99.90
43087;DHT22;28708;52.224;6.924;2023-02-22T00:13:45;8.70;99.90
43087;DHT22;28708;52.224;6.924;2023-02-22T00:16:16;8.80;99.90
43087;DHT22;28708;52.224;6.924;2023-02-22T00:18:43;8.80;99.90
43087;DHT22;28708;52.224;6.924;2023-02-22T00:21:10;8.70;99.90
43087;DHT22;28708;52.224;6.924;2023-02-22T00:23:36;8.80;99.90
43087;DHT22;28708;52.224;6.924;2023-02-22T00:26:05;8.70;99.90
43087;DHT22;28708;52.224;6.924;2023-02-22T00:28:35;8.70;99.90
43087;DHT22;28708;52.224;6.924;2023-02-22T00:31:02;8.70;99.90
43087;DHT22;28708;52.224;6.924;2023-02-22T00:33:30;8.70;99.90
43087;DHT22;28708;52.224;6.924;2023-02-22T00:35:56;8.70;99.90
43087;DHT22;28708;52.224;6.924;2023-02-22T00:38:22;8.70;99.90
43087;DHT22;28708;52.224;6.924;2023-02-22T00:40:48;8.70;99.90
43087;DHT22;28708;52.224;6.924;2023-02-22T00:43:14;8.70;99.90
43087;DHT22;28708;52.224;6.924;2023-02-22T00:45:41;8.70;99.90
43087;DHT22;28708;52.224;6.924;2023-02-22T00:48:07;8.60;99.90
43087;DHT22;28708;52.224;6.924;2023-02-22T00:50:33;8.70;99.90
43087;DHT22;28708;52.224;6.924;2023-02-22T00:53:01;8.70;99.90
43087;DHT22;28708;52.224;6.924;2023-02-22T00:55:33;8.70;99.90
43087;DHT22;28708;52.224;6.924;2023-02-22T00:58:00;8.70;99.90
43087;DHT22;28708;52.224;6.924;2023-02-22T01:00:39;8.70;99.90
43087;DHT22;28708;52.224;6.924;2023-02-22T01:03:07;8.60;99.90
43087;DHT22;28708;52.224;6.924;2023-02-22T01:05:33;8.60;99.90
43087;DHT22;28708;52.224;6.924;2023-02-22T01:08:00;8.70;99.90
43087;DHT22;28708;52.224;6.924;2023-02-22T01:10:28;8.70;99.90
43087;DHT22;28708;52.224;6.924;2023-02-22T01:12:54;8.70;99.90
43087;DHT22;28708;52.224;6.924;2023-02-22T01:15:22;8.60;99.90
43087;DHT22;28708;52.224;6.924;2023-02-22T01:17:49;8.60;99.90
43087;DHT22;28708;52.224;6.924;2023-02-22T01:20:16;8.50;99.90
43087;DHT22;28708;52.224;6.924;2023-02-22T01:22:44;8.50;99.90
43087;DHT22;28708;52.224;6.924;2023-02-22T01:25:14;8.50;99.90
43087;DHT22;28708;52.224;6.924;2023-02-22T01:27:40;8.50;99.90
43087;DHT22;28708;52.224;6.924;2023-02-22T01:30:07;8.50;99.90
43087;DHT22;28708;52.224;6.924;2023-02-22T01:32:34;8.50;99.90
43087;DHT22;28708;52.224;6.924;2023-02-22T01:35:01;8.40;99.90
43087;DHT22;28708;52.224;6.924;2023-02-22T01:37:30;8.50;99.90
43087;DHT22;28708;52.224;6.924;2023-02-22T01:39:56;8.40;99.90
43087;DHT22;28708;52.224;6.924;2023-02-22T01:42:23;8.40;99.90
43087;DHT22;28708;52.224;6.924;2023-02-22T01:47:53;8.30;99.90
43087;DHT22;28708;52.224;6.924;2023-02-22T01:50:20;8.30;99.90
43087;DHT22;28708;52.224;6.924;2023-02-22T01:52:47;8.30;99.90
43087;DHT22;28708;52.224;6.924;2023-02-22T01:55:16;8.30;99.90
43087;DHT22;28708;52.224;6.924;2023-02-22T01:57:42;8.30;99.90
43087;DHT22;28708;52.224;6.924;2023-02-22T02:00:12;8.30;99.90
43087;DHT22;28708;52.224;6.924;2023-02-22T02:02:43;8.20;99.90
43087;DHT22;28708;52.224;6.924;2023-02-22T02:05:10;8.30;99.90
43087;DHT22;28708;52.224;6.924;2023-02-22T02:07:37;8.30;99.90
43087;DHT22;28708;52.224;6.924;2023-02-22T02:10:11;8.30;99.90
43087;DHT22;28708;52.224;6.924;2023-02-22T02:12:43;8.20;99.90
43087;DHT22;28708;52.224;6.924;2023-02-22T02:15:22;8.10;99.90
43087;DHT22;28708;52.224;6.924;2023-02-22T02:17:50;8.10;99.90
43087;DHT22;28708;52.224;6.924;2023-02-22T02:20:49;8.10;99.90
43087;DHT22;28708;52.224;6.924;2023-02-22T02:40:08;8.20;99.90
43087;DHT22;28708;52.224;6.924;2023-02-22T02:42:48;8.10;99.90
43087;DHT22;28708;52.224;6.924;2023-02-22T02:45:20;8.10;99.90
43087;DHT22;28708;52.224;6.924;2023-02-22T02:47:53;8.10;99.90
43087;DHT22;28708;52.224;6.924;2023-02-22T02:50:30;8.10;99.90
43087;DHT22;28708;52.224;6.924;2023-02-22T02:53:00;8.10;99.90
43087;DHT22;28708;52.224;6.924;2023-02-22T02:55:28;8.10;99.90
43087;DHT22;28708;52.224;6.924;2023-02-22T02:57:55;8.20;99.90
43087;DHT22;28708;52.224;6.924;2023-02-22T03:00:24;8.20;99.90
43087;DHT22;28708;52.224;6.924;2023-02-22T03:03:22;8.20;99.90
43087;DHT22;28708;52.224;6.924;2023-02-22T03:09:11;8.20;99.90
43087;DHT22;28708;52.224;6.924;2023-02-22T03:11:50;8.30;99.90
43087;DHT22;28708;52.224;6.924;2023-02-22T03:14:41;8.30;99.90
43087;DHT22;28708;52.224;6.924;2023-02-22T03:17:24;8.30;99.90
43087;DHT22;28708;52.224;6.924;2023-02-22T03:19:59;8.20;99.90
43087;DHT22;28708;52.224;6.924;2023-02-22T03:23:09;8.20;99.90
43087;DHT22;28708;52.224;6.924;2023-02-22T03:25:42;8.20;99.90
43087;DHT22;28708;52.224;6.924;2023-02-22T03:28:14;8.20;99.90
43087;DHT22;28708;52.224;6.924;2023-02-22T03:30:47;8.10;99.90
43087;DHT22;28708;52.224;6.924;2023-02-22T03:33:20;7.90;99.90
43087;DHT22;28708;52.224;6.924;2023-02-22T03:35:57;7.90;99.90
43087;DHT22;28708;52.224;6.924;2023-02-22T03:38:26;7.90;99.90
43087;DHT22;28708;52.224;6.924;2023-02-22T03:40:56;7.90;99.90
43087;DHT22;28708;52.224;6.924;2023-02-22T03:43:28;7.80;99.90
43087;DHT22;28708;52.224;6.924;2023-02-22T03:45:59;7.80;99.90
43087;DHT22;28708;52.224;6.924;2023-02-22T03:48:50;7.70;99.90
43087;DHT22;28708;52.224;6.924;2023-02-22T03:51:19;7.70;99.90
43087;DHT22;28708;52.224;6.924;2023-02-22T03:53:49;7.70;99.90
43087;DHT22;28708;52.224;6.924;2023-02-22T03:56:23;7.70;99.90
43087;DHT22;28708;52.224;6.924;2023-02-22T03:58:50;7.80;99.90
43087;DHT22;28708;52.224;6.924;2023-02-22T04:01:17;7.80;99.90
43087;DHT22;28708;52.224;6.924;2023-02-22T04:03:44;7.70;99.90
43087;DHT22;28708;52.224;6.924;2023-02-22T04:06:10;7.70;99.90
43087;DHT22;28708;52.224;6.924;2023-02-22T04:08:37;7.60;99.90
43087;DHT22;28708;52.224;6.924;2023-02-22T04:11:02;7.60;99.90
43087;DHT22;28708;52.224;6.924;2023-02-22T04:13:29;7.80;99.90
43087;DHT22;28708;52.224;6.924;2023-02-22T04:15:56;7.80;99.90
43087;DHT22;28708;52.224;6.924;2023-02-22T04:18:22;7.80;99.90
43087;DHT22;28708;52.224;6.924;2023-02-22T04:20:48;7.80;99.90
43087;DHT22;28708;52.224;6.924;2023-02-22T04:23:24;7.60;99.90
43087;DHT22;28708;52.224;6.924;2023-02-22T04:25:51;7.60;99.90
43087;DHT22;28708;52.224;6.924;2023-02-22T04:28:18;7.60;99.90
43087;DHT22;28708;52.224;6.924;2023-02-22T04:30:50;7.70;99.90
43087;DHT22;28708;52.224;6.924;2023-02-22T04:33:17;7.70;99.90
43087;DHT22;28708;52.224;6.924;2023-02-22T04:35:43;7.80;99.90
43087;DHT22;28708;52.224;6.924;2023-02-22T04:38:08;7.70;99.90
43087;DHT22;28708;52.224;6.924;2023-02-22T04:40:34;7.60;99.90
43087;DHT22;28708;52.224;6.924;2023-02-22T04:43:00;7.60;99.90
43087;DHT22;28708;52.224;6.924;2023-02-22T04:45:26;7.60;99.90
43087;DHT22;28708;52.224;6.924;2023-02-22T04:47:52;7.60;99.90
43087;DHT22;28708;52.224;6.924;2023-02-22T04:50:17;7.60;99.90
43087;DHT22;28708;52.224;6.924;2023-02-22T04:52:44;7.70;99.90
43087;DHT22;28708;52.224;6.924;2023-02-22T04:55:11;7.80;99.90
43087;DHT22;28708;52.224;6.924;2023-02-22T04:57:36;7.80;99.90
43087;DHT22;28708;52.224;6.924;2023-02-22T05:00:04;7.70;99.90
43087;DHT22;28708;52.224;6.924;2023-02-22T05:02:31;7.60;99.90
43087;DHT22;28708;52.224;6.924;2023-02-22T05:04:56;7.70;99.90
43087;DHT22;28708;52.224;6.924;2023-02-22T05:07:22;7.70;99.90
43087;DHT22;28708;52.224;6.924;2023-02-22T05:09:47;7.60;99.90
43087;DHT22;28708;52.224;6.924;2023-02-22T05:12:13;7.60;99.90
43087;DHT22;28708;52.224;6.924;2023-02-22T05:14:39;7.60;99.90
43087;DHT22;28708;52.224;6.924;2023-02-22T05:17:06;7.60;99.90
43087;DHT22;28708;52.224;6.924;2023-02-22T05:19:32;7.50;99.90
43087;DHT22;28708;52.224;6.924;2023-02-22T05:21:57;7.50;99.90
43087;DHT22;28708;52.224;6.924;2023-02-22T05:24:23;7.60;99.90
43087;DHT22;28708;52.224;6.924;2023-02-22T05:26:49;7.50;99.90
43087;DHT22;28708;52.224;6.924;2023-02-22T05:29:15;7.50;99.90
43087;DHT22;28708;52.224;6.924;2023-02-22T05:31:41;7.60;99.90
43087;DHT22;28708;52.224;6.924;2023-02-22T05:34:07;7.60;99.90
43087;DHT22;28708;52.224;6.924;2023-02-22T05:36:32;7.60;99.90
43087;DHT22;28708;52.224;6.924;2023-02-22T05:38:58;7.60;99.90
43087;DHT22;28708;52.224;6.924;2023-02-22T05:41:24;7.50;99.90
43087;DHT22;28708;52.224;6.924;2023-02-22T05:43:49;7.40;99.90
43087;DHT22;28708;52.224;6.924;2023-02-22T05:46:15;7.50;99.90
43087;DHT22;28708;52.224;6.924;2023-02-22T05:48:41;7.50;99.90
43087;DHT22;28708;52.224;6.924;2023-02-22T05:51:06;7.50;99.90
43087;DHT22;28708;52.224;6.924;2023-02-22T05:53:34;7.40;99.90
43087;DHT22;28708;52.224;6.924;2023-02-22T05:56:00;7.50;99.90
43087;DHT22;28708;52.224;6.924;2023-02-22T05:58:26;7.40;99.90
43087;DHT22;28708;52.224;6.924;2023-02-22T06:00:51;7.40;99.90
43087;DHT22;28708;52.224;6.924;2023-02-22T06:03:17;7.50;99.90
43087;DHT22;28708;52.224;6.924;2023-02-22T06:05:43;7.40;99.90
43087;DHT22;28708;52.224;6.924;2023-02-22T06:08:09;7.50;99.90
43087;DHT22;28708;52.224;6.924;2023-02-22T06:10:34;7.40;99.90
43087;DHT22;28708;52.224;6.924;2023-02-22T06:13:02;7.50;99.90
43087;DHT22;28708;52.224;6.924;2023-02-22T06:15:29;7.40;99.90
43087;DHT22;28708;52.224;6.924;2023-02-22T06:17:55;7.30;99.90
43087;DHT22;28708;52.224;6.924;2023-02-22T06:20:23;7.30;99.90
43087;DHT22;28708;52.224;6.924;2023-02-22T06:22:49;7.30;99.90
43087;DHT22;28708;52.224;6.924;2023-02-22T06:25:19;7.30;99.90
43087;DHT22;28708;52.224;6.924;2023-02-22T06:27:45;7.30;99.90
43087;DHT22;28708;52.224;6.924;2023-02-22T06:30:11;7.20;99.90
43087;DHT22;28708;52.224;6.924;2023-02-22T06:32:37;7.30;99.90
43087;DHT22;28708;52.224;6.924;2023-02-22T06:35:03;7.30;99.90
43087;DHT22;28708;52.224;6.924;2023-02-22T06:37:29;7.30;99.90
43087;DHT22;28708;52.224;6.924;2023-02-22T06:39:55;7.30;99.90
43087;DHT22;28708;52.224;6.924;2023-02-22T06:42:20;7.30;99.90
43087;DHT22;28708;52.224;6.924;2023-02-22T06:44:46;7.30;99.90
43087;DHT22;28708;52.224;6.924;2023-02-22T06:47:12;7.30;99.90
43087;DHT22;28708;52.224;6.924;2023-02-22T06:49:37;7.20;99.90
43087;DHT22;28708;52.224;6.924;2023-02-22T06:52:04;7.30;99.90
43087;DHT22;28708;52.224;6.924;2023-02-22T06:54:30;7.20;99.90
43087;DHT22;28708;52.224;6.924;2023-02-22T06:56:55;7.20;99.90
43087;DHT22;28708;52.224;6.924;2023-02-22T06:59:21;7.30;99.90
43087;DHT22;28708;52.224;6.924;2023-02-22T07:01:47;7.30;99.90
43087;DHT22;28708;52.224;6.924;2023-02-22T07:04:13;7.20;99.90
43087;DHT22;28708;52.224;6.924;2023-02-22T07:06:45;7.30;99.90
43087;DHT22;28708;52.224;6.924;2023-02-22T07:09:12;7.20;99.90
43087;DHT22;28708;52.224;6.924;2023-02-22T07:11:38;7.30;99.90
43087;DHT22;28708;52.224;6.924;2023-02-22T07:14:04;7.30;99.90
43087;DHT22;28708;52.224;6.924;2023-02-22T07:16:30;7.30;99.90
43087;DHT22;28708;52.224;6.924;2023-02-22T07:18:55;7.30;99.90
43087;DHT22;28708;52.224;6.924;2023-02-22T07:21:21;7.30;99.90
43087;DHT22;28708;52.224;6.924;2023-02-22T07:23:51;7.30;99.90
43087;DHT22;28708;52.224;6.924;2023-02-22T07:26:18;7.30;99.90
43087;DHT22;28708;52.224;6.924;2023-02-22T07:28:43;7.30;99.90
43087;DHT22;28708;52.224;6.924;2023-02-22T07:31:09;7.30;99.90
43087;DHT22;28708;52.224;6.924;2023-02-22T07:33:35;7.30;99.90
43087;DHT22;28708;52.224;6.924;2023-02-22T07:36:00;7.30;99.90
43087;DHT22;28708;52.224;6.924;2023-02-22T07:38:26;7.40;99.90
43087;DHT22;28708;52.224;6.924;2023-02-22T07:40:53;7.30;99.90
43087;DHT22;28708;52.224;6.924;2023-02-22T07:43:27;7.30;99.90
43087;DHT22;28708;52.224;6.924;2023-02-22T07:45:55;7.40;99.90
43087;DHT22;28708;52.224;6.924;2023-02-22T07:48:24;7.40;99.90
43087;DHT22;28708;52.224;6.924;2023-02-22T07:50:50;7.30;99.90
43087;DHT22;28708;52.224;6.924;2023-02-22T07:53:21;7.40;99.90
43087;DHT22;28708;52.224;6.924;2023-02-22T07:55:47;7.40;99.90
43087;DHT22;28708;52.224;6.924;2023-02-22T07:58:17;7.40;99.90
43087;DHT22;28708;52.224;6.924;2023-02-22T08:00:43;7.30;99.90
43087;DHT22;28708;52.224;6.924;2023-02-22T08:03:13;7.20;99.90
43087;DHT22;28708;52.224;6.924;2023-02-22T08:05:40;7.30;99.90
43087;DHT22;28708;52.224;6.924;2023-02-22T08:08:07;7.30;99.90
43087;DHT22;28708;52.224;6.924;2023-02-22T08:10:34;7.40;99.90
43087;DHT22;28708;52.224;6.924;2023-02-22T08:13:00;7.40;99.90
43087;DHT22;28708;52.224;6.924;2023-02-22T08:15:37;7.40;99.90
43087;DHT22;28708;52.224;6.924;2023-02-22T08:18:05;7.40;99.90
43087;DHT22;28708;52.224;6.924;2023-02-22T08:20:33;7.40;99.90
43087;DHT22;28708;52.224;6.924;2023-02-22T08:23:00;7.40;99.90
43087;DHT22;28708;52.224;6.924;2023-02-22T08:25:27;7.40;99.90
43087;DHT22;28708;52.224;6.924;2023-02-22T08:27:58;7.40;99.90
43087;DHT22;28708;52.224;6.924;2023-02-22T08:30:28;7.30;99.90
43087;DHT22;28708;52.224;6.924;2023-02-22T08:32:55;7.40;99.90
43087;DHT22;28708;52.224;6.924;2023-02-22T08:35:21;7.30;99.90
43087;DHT22;28708;52.224;6.924;2023-02-22T08:37:59;7.40;99.90
43087;DHT22;28708;52.224;6.924;2023-02-22T08:40:28;7.40;99.90
43087;DHT22;28708;52.224;6.924;2023-02-22T08:42:54;7.30;99.90
43087;DHT22;28708;52.224;6.924;2023-02-22T08:45:20;7.30;99.90
43087;DHT22;28708;52.224;6.924;2023-02-22T08:47:46;7.30;99.90
43087;DHT22;28708;52.224;6.924;2023-02-22T08:50:23;7.30;99.90
43087;DHT22;28708;52.224;6.924;2023-02-22T08:52:51;7.30;99.90
43087;DHT22;28708;52.224;6.924;2023-02-22T08:55:21;7.40;99.90
43087;DHT22;28708;52.224;6.924;2023-02-22T08:57:47;7.30;99.90
43087;DHT22;28708;52.224;6.924;2023-02-22T09:00:14;7.40;99.90
43087;DHT22;28708;52.224;6.924;2023-02-22T09:02:40;7.30;99.90
43087;DHT22;28708;52.224;6.924;2023-02-22T09:05:06;7.40;99.90
43087;DHT22;28708;52.224;6.924;2023-02-22T09:07:32;7.30;99.90
43087;DHT22;28708;52.224;6.924;2023-02-22T09:09:57;7.30;99.90
43087;DHT22;28708;52.224;6.924;2023-02-22T09:12:23;7.40;99.90
43087;DHT22;28708;52.224;6.924;2023-02-22T09:14:49;7.40;99.90
43087;DHT22;28708;52.224;6.924;2023-02-22T09:17:14;7.40;99.90
43087;DHT22;28708;52.224;6.924;2023-02-22T09:19:40;7.30;99.90
43087;DHT22;28708;52.224;6.924;2023-02-22T09:22:06;7.40;99.90
43087;DHT22;28708;52.224;6.924;2023-02-22T09:24:31;7.40;99.90
43087;DHT22;28708;52.224;6.924;2023-02-22T09:26:57;7.50;99.90
43087;DHT22;28708;52.224;6.924;2023-02-22T09:29:25;7.50;99.90
43087;DHT22;28708;52.224;6.924;2023-02-22T09:31:53;7.50;99.90
43087;DHT22;28708;52.224;6.924;2023-02-22T09:34:21;7.50;99.90
43087;DHT22;28708;52.224;6.924;2023-02-22T09:36:52;7.50;99.90
43087;DHT22;28708;52.224;6.924;2023-02-22T09:39:18;7.50;99.90
43087;DHT22;28708;52.224;6.924;2023-02-22T09:42:02;7.50;99.90
43087;DHT22;28708;52.224;6.924;2023-02-22T09:47:39;7.70;99.90
43087;DHT22;28708;52.224;6.924;2023-02-22T09:50:15;7.70;99.90
43087;DHT22;28708;52.224;6.924;2023-02-22T09:53:01;7.70;99.90
43087;DHT22;28708;52.224;6.924;2023-02-22T09:55:38;7.80;99.90
43087;DHT22;28708;52.224;6.924;2023-02-22T10:00:56;8.50;99.90
43087;DHT22;28708;52.224;6.924;2023-02-22T10:03:46;8.70;99.90
43087;DHT22;28708;52.224;6.924;2023-02-22T10:06:16;8.90;99.90
43087;DHT22;28708;52.224;6.924;2023-02-22T10:08:46;9.00;99.90
43087;DHT22;28708;52.224;6.924;2023-02-22T10:27:37;10.50;99.90
43087;DHT22;28708;52.224;6.924;2023-02-22T10:30:25;10.80;99.90
43087;DHT22;28708;52.224;6.924;2023-02-22T10:33:04;11.10;99.90
43087;DHT22;28708;52.224;6.924;2023-02-22T10:35:34;11.00;99.90
43087;DHT22;28708;52.224;6.924;2023-02-22T10:43:39;11.10;99.90
43087;DHT22;28708;52.224;6.924;2023-02-22T10:46:07;10.80;99.90
43087;DHT22;28708;52.224;6.924;2023-02-22T10:48:35;10.40;99.90
43087;DHT22;28708;52.224;6.924;2023-02-22T10:51:04;10.10;99.90
43087;DHT22;28708;52.224;6.924;2023-02-22T10:53:31;10.20;99.90
43087;DHT22;28708;52.224;6.924;2023-02-22T10:56:21;10.10;99.90
43087;DHT22;28708;52.224;6.924;2023-02-22T10:58:59;10.10;99.90
43087;DHT22;28708;52.224;6.924;2023-02-22T11:01:37;10.00;99.90
43087;DHT22;28708;52.224;6.924;2023-02-22T11:04:19;9.90;99.90
43087;DHT22;28708;52.224;6.924;2023-02-22T11:07:07;10.00;99.90
43087;DHT22;28708;52.224;6.924;2023-02-22T11:09:48;9.80;99.90
43087;DHT22;28708;52.224;6.924;2023-02-22T11:12:21;9.70;99.90
43087;DHT22;28708;52.224;6.924;2023-02-22T11:14:50;9.80;99.90
43087;DHT22;28708;52.224;6.924;2023-02-22T11:17:24;10.00;99.90
43087;DHT22;28708;52.224;6.924;2023-02-22T11:19:52;10.20;99.90
43087;DHT22;28708;52.224;6.924;2023-02-22T11:22:54;10.70;99.90
43087;DHT22;28708;52.224;6.924;2023-02-22T11:25:20;10.70;99.90
43087;DHT22;28708;52.224;6.924;2023-02-22T11:27:47;11.30;99.90
43087;DHT22;28708;52.224;6.924;2023-02-22T11:30:29;11.60;99.90
43087;DHT22;28708;52.224;6.924;2023-02-22T11:33:18;11.20;99.90
43087;DHT22;28708;52.224;6.924;2023-02-22T11:35:53;11.10;99.90
43087;DHT22;28708;52.224;6.924;2023-02-22T11:41:27;11.40;99.90
43087;DHT22;28708;52.224;6.924;2023-02-22T11:43:53;11.40;99.90
43087;DHT22;28708;52.224;6.924;2023-02-22T11:46:34;11.10;99.90
43087;DHT22;28708;52.224;6.924;2023-02-22T11:49:05;11.20;99.90
43087;DHT22;28708;52.224;6.924;2023-02-22T11:54:28;11.70;99.90
43087;DHT22;28708;52.224;6.924;2023-02-22T12:05:44;11.90;99.90
43087;DHT22;28708;52.224;6.924;2023-02-22T12:08:26;11.70;99.90
43087;DHT22;28708;52.224;6.924;2023-02-22T12:11:24;11.90;99.90
43087;DHT22;28708;52.224;6.924;2023-02-22T12:14:05;12.10;99.90
43087;DHT22;28708;52.224;6.924;2023-02-22T12:22:30;12.30;99.90
43087;DHT22;28708;52.224;6.924;2023-02-22T12:25:20;12.10;99.90
43087;DHT22;28708;52.224;6.924;2023-02-22T12:27:59;12.00;99.90
43087;DHT22;28708;52.224;6.924;2023-02-22T12:30:30;12.30;99.90
43087;DHT22;28708;52.224;6.924;2023-02-22T12:33:02;12.30;99.90
43087;DHT22;28708;52.224;6.924;2023-02-22T12:35:41;12.20;99.90
43087;DHT22;28708;52.224;6.924;2023-02-22T12:38:31;12.40;99.90
43087;DHT22;28708;52.224;6.924;2023-02-22T12:41:24;12.40;99.90
43087;DHT22;28708;52.224;6.924;2023-02-22T12:44:08;12.40;99.90
43087;DHT22;28708;52.224;6.924;2023-02-22T12:46:42;12.10;99.90
43087;DHT22;28708;52.224;6.924;2023-02-22T12:49:11;12.10;99.90
43087;DHT22;28708;52.224;6.924;2023-02-22T12:54:46;12.40;99.90
43087;DHT22;28708;52.224;6.924;2023-02-22T13:03:16;12.20;99.90
43087;DHT22;28708;52.224;6.924;2023-02-22T13:05:51;12.20;99.90
43087;DHT22;28708;52.224;6.924;2023-02-22T13:08:31;12.30;99.90
43087;DHT22;28708;52.224;6.924;2023-02-22T13:11:16;12.50;99.90
43087;DHT22;28708;52.224;6.924;2023-02-22T13:24:54;12.30;99.90
43087;DHT22;28708;52.224;6.924;2023-02-22T13:27:29;12.50;99.90
43087;DHT22;28708;52.224;6.924;2023-02-22T13:29:58;12.60;99.90
43087;DHT22;28708;52.224;6.924;2023-02-22T13:35:06;12.80;99.90
43087;DHT22;28708;52.224;6.924;2023-02-22T13:41:03;12.80;99.90
43087;DHT22;28708;52.224;6.924;2023-02-22T13:44:05;12.70;99.90
43087;DHT22;28708;52.224;6.924;2023-02-22T13:47:00;12.40;99.90
43087;DHT22;28708;52.224;6.924;2023-02-22T13:52:26;12.80;99.90
43087;DHT22;28708;52.224;6.924;2023-02-22T13:55:01;12.90;99.90
43087;DHT22;28708;52.224;6.924;2023-02-22T13:57:40;12.90;99.90
43087;DHT22;28708;52.224;6.924;2023-02-22T14:10:50;12.90;99.90
43087;DHT22;28708;52.224;6.924;2023-02-22T14:13:21;13.00;99.90
43087;DHT22;28708;52.224;6.924;2023-02-22T14:21:05;13.10;99.90
43087;DHT22;28708;52.224;6.924;2023-02-22T14:23:34;13.00;99.90
43087;DHT22;28708;52.224;6.924;2023-02-22T14:28:47;12.90;99.90
43087;DHT22;28708;52.224;6.924;2023-02-22T14:31:17;12.80;99.90
43087;DHT22;28708;52.224;6.924;2023-02-22T14:33:53;12.80;99.90
43087;DHT22;28708;52.224;6.924;2023-02-22T14:39:18;12.60;99.90
43087;DHT22;28708;52.224;6.924;2023-02-22T14:41:55;12.60;99.90
43087;DHT22;28708;52.224;6.924;2023-02-22T14:44:25;12.60;99.90
43087;DHT22;28708;52.224;6.924;2023-02-22T14:46:55;12.70;99.90
43087;DHT22;28708;52.224;6.924;2023-02-22T14:49:24;12.70;99.90
43087;DHT22;28708;52.224;6.924;2023-02-22T14:51:59;12.80;99.90
43087;DHT22;28708;52.224;6.924;2023-02-22T14:54:38;12.80;99.90
43087;DHT22;28708;52.224;6.924;2023-02-22T14:57:39;12.70;99.90
43087;DHT22;28708;52.224;6.924;2023-02-22T15:00:19;12.60;99.90
43087;DHT22;28708;52.224;6.924;2023-02-22T15:02:49;12.70;99.90
43087;DHT22;28708;52.224;6.924;2023-02-22T15:05:18;12.70;99.90
43087;DHT22;28708;52.224;6.924;2023-02-22T15:07:52;12.70;99.90
43087;DHT22;28708;52.224;6.924;2023-02-22T15:10:23;12.70;99.90
43087;DHT22;28708;52.224;6.924;2023-02-22T15:13:04;12.70;99.90
43087;DHT22;28708;52.224;6.924;2023-02-22T15:15:41;12.60;99.90
43087;DHT22;28708;52.224;6.924;2023-02-22T15:23:16;12.50;99.90
43087;DHT22;28708;52.224;6.924;2023-02-22T15:25:46;12.60;99.90
43087;DHT22;28708;52.224;6.924;2023-02-22T15:28:14;12.70;99.90
43087;DHT22;28708;52.224;6.924;2023-02-22T15:30:41;12.50;99.90
43087;DHT22;28708;52.224;6.924;2023-02-22T15:33:16;12.50;99.90
43087;DHT22;28708;52.224;6.924;2023-02-22T15:35:43;12.50;99.90
43087;DHT22;28708;52.224;6.924;2023-02-22T15:40:38;12.30;99.90
43087;DHT22;28708;52.224;6.924;2023-02-22T15:43:22;12.20;99.90
43087;DHT22;28708;52.224;6.924;2023-02-22T15:45:52;12.20;99.90
43087;DHT22;28708;52.224;6.924;2023-02-22T15:48:18;12.30;99.90
43087;DHT22;28708;52.224;6.924;2023-02-22T15:56:09;12.50;99.90
43087;DHT22;28708;52.224;6.924;2023-02-22T15:58:36;12.40;99.90
43087;DHT22;28708;52.224;6.924;2023-02-22T16:01:08;12.40;99.90
43087;DHT22;28708;52.224;6.924;2023-02-22T16:03:46;12.30;99.90
43087;DHT22;28708;52.224;6.924;2023-02-22T16:06:30;12.30;99.90
43087;DHT22;28708;52.224;6.924;2023-02-22T16:09:17;12.30;99.90
43087;DHT22;28708;52.224;6.924;2023-02-22T16:11:44;12.30;99.90
43087;DHT22;28708;52.224;6.924;2023-02-22T16:14:29;12.20;99.90
43087;DHT22;28708;52.224;6.924;2023-02-22T16:19:50;12.10;99.90
43087;DHT22;28708;52.224;6.924;2023-02-22T16:22:32;12.10;99.90
43087;DHT22;28708;52.224;6.924;2023-02-22T16:32:43;12.00;99.90
43087;DHT22;28708;52.224;6.924;2023-02-22T16:35:09;11.90;99.90
43087;DHT22;28708;52.224;6.924;2023-02-22T16:37:48;11.90;99.90
43087;DHT22;28708;52.224;6.924;2023-02-22T16:40:21;11.90;99.90
43087;DHT22;28708;52.224;6.924;2023-02-22T16:42:48;11.90;99.90
43087;DHT22;28708;52.224;6.924;2023-02-22T16:45:17;11.80;99.90
43087;DHT22;28708;52.224;6.924;2023-02-22T16:47:44;11.70;99.90
43087;DHT22;28708;52.224;6.924;2023-02-22T16:50:10;11.60;99.90
43087;DHT22;28708;52.224;6.924;2023-02-22T16:52:38;11.60;99.90
43087;DHT22;28708;52.224;6.924;2023-02-22T16:55:05;11.70;99.90
43087;DHT22;28708;52.224;6.924;2023-02-22T16:57:33;11.70;99.90
43087;DHT22;28708;52.224;6.924;2023-02-22T17:00:00;11.70;99.90
43087;DHT22;28708;52.224;6.924;2023-02-22T17:02:26;11.60;99.90
43087;DHT22;28708;52.224;6.924;2023-02-22T17:04:52;11.70;99.90
43087;DHT22;28708;52.224;6.924;2023-02-22T17:07:20;11.60;99.90
43087;DHT22;28708;52.224;6.924;2023-02-22T17:09:48;11.60;99.90
43087;DHT22;28708;52.224;6.924;2023-02-22T17:12:16;11.50;99.90
43087;DHT22;28708;52.224;6.924;2023-02-22T17:14:44;11.50;99.90
43087;DHT22;28708;52.224;6.924;2023-02-22T17:17:11;11.40;99.90
43087;DHT22;28708;52.224;6.924;2023-02-22T17:19:37;11.30;99.90
43087;DHT22;28708;52.224;6.924;2023-02-22T17:22:03;11.30;99.90
43087;DHT22;28708;52.224;6.924;2023-02-22T17:24:31;11.30;99.90
43087;DHT22;28708;52.224;6.924;2023-02-22T17:26:59;11.30;99.90
43087;DHT22;28708;52.224;6.924;2023-02-22T17:29:24;11.40;99.90
43087;DHT22;28708;52.224;6.924;2023-02-22T17:31:52;11.40;99.90
43087;DHT22;28708;52.224;6.924;2023-02-22T17:34:18;11.40;99.90
43087;DHT22;28708;52.224;6.924;2023-02-22T17:36:44;11.30;99.90
43087;DHT22;28708;52.224;6.924;2023-02-22T17:39:10;11.30;99.90
43087;DHT22;28708;52.224;6.924;2023-02-22T17:41:36;11.20;99.90
43087;DHT22;28708;52.224;6.924;2023-02-22T17:44:02;11.10;99.90
43087;DHT22;28708;52.224;6.924;2023-02-22T17:46:28;11.10;99.90
43087;DHT22;28708;52.224;6.924;2023-02-22T17:48:54;11.20;99.90
43087;DHT22;28708;52.224;6.924;2023-02-22T17:51:21;11.10;99.90
43087;DHT22;28708;52.224;6.924;2023-02-22T17:53:47;11.20;99.90
43087;DHT22;28708;52.224;6.924;2023-02-22T17:56:14;11.10;99.90
43087;DHT22;28708;52.224;6.924;2023-02-22T17:58:43;11.00;99.90
43087;DHT22;28708;52.224;6.924;2023-02-22T18:01:21;11.00;99.90
43087;DHT22;28708;52.224;6.924;2023-02-22T18:03:50;11.00;99.90
43087;DHT22;28708;52.224;6.924;2023-02-22T18:06:18;11.00;99.90
43087;DHT22;28708;52.224;6.924;2023-02-22T18:08:45;11.00;99.90
43087;DHT22;28708;52.224;6.924;2023-02-22T18:11:13;11.00;99.90
43087;DHT22;28708;52.224;6.924;2023-02-22T18:13:39;11.10;99.90
43087;DHT22;28708;52.224;6.924;2023-02-22T18:16:05;11.10;99.90
43087;DHT22;28708;52.224;6.924;2023-02-22T18:18:31;11.10;99.90
43087;DHT22;28708;52.224;6.924;2023-02-22T18:20:57;11.10;99.90
43087;DHT22;28708;52.224;6.924;2023-02-22T18:23:27;11.10;99.90
43087;DHT22;28708;52.224;6.924;2023-02-22T18:25:54;11.10;99.90